Time;durP1;ratioP1;P1;durP2;ratioP2;P2;SDS_P1;SDS_P2;PMS_P1;PMS_P2;Temp;Humidity;BMP_temperature;BMP_pressure;BME280_temperature;BME280_humidity;BME280_pressure;Samples;Min_cycle;Max_cycle;Signal;HPM_P1;HPM_P2
2023/12/31 00:02:09;;;;;;;9.07;6.97;;;;;;;8.95;58.09;98305.44;7011173;28;20254;-82
2023/12/31 00:05:33;;;;;;;5.77;4.40;;;;;;;9.04;57.50;98289.72;7027213;28;20510;-81
2023/12/31 00:08:54;;;;;;;5.67;4.57;;;;;;;9.05;58.50;98285.97;7013096;28;20281;-81
2023/12/31 00:12:16;;;;;;;5.40;4.90;;;;;;;9.46;57.58;98302.69;7025190;28;20208;-82
2023/12/31 00:15:37;;;;;;;6.63;4.57;;;;;;;9.40;57.34;98291.94;7040532;28;20213;-82
2023/12/31 00:18:59;;;;;;;5.73;4.77;;;;;;;9.53;56.36;98275.78;7034859;28;20228;-83
2023/12/31 00:22:22;;;;;;;4.93;4.53;;;;;;;9.46;56.87;98269.59;7024447;28;20638;-83
2023/12/31 00:25:49;;;;;;;5.77;4.70;;;;;;;9.48;56.40;98271.03;7029440;28;20247;-85
2023/12/31 00:29:11;;;;;;;4.90;4.40;;;;;;;9.15;56.67;98253.31;7037535;28;20259;-85
2023/12/31 00:32:33;;;;;;;5.13;4.63;;;;;;;8.80;57.37;98216.13;7035041;28;20212;-83
2023/12/31 00:35:54;;;;;;;5.33;4.70;;;;;;;9.13;57.41;98265.31;7028687;28;20254;-83
2023/12/31 00:39:17;;;;;;;7.30;4.53;;;;;;;8.58;58.29;98241.53;7027753;28;20225;-87
2023/12/31 00:42:39;;;;;;;5.27;4.73;;;;;;;8.21;58.97;98256.38;7015156;28;20215;-83
2023/12/31 00:46:23;;;;;;;5.67;4.90;;;;;;;8.51;59.14;98244.25;7036602;28;20292;-83
2023/12/31 00:49:50;;;;;;;10.53;5.43;;;;;;;8.77;58.24;98238.06;7018384;28;20232;-84
2023/12/31 00:53:11;;;;;;;9.27;5.90;;;;;;;8.59;58.32;98233.28;7035730;28;20212;-85
2023/12/31 00:56:34;;;;;;;8.20;5.43;;;;;;;8.73;57.74;98236.81;7015495;28;20210;-84
2023/12/31 00:59:56;;;;;;;7.73;5.23;;;;;;;8.18;58.23;98239.81;6995535;28;20224;-84
2023/12/31 01:03:18;;;;;;;7.83;6.00;;;;;;;8.44;58.65;98234.50;6988978;28;20207;-84
2023/12/31 01:06:39;;;;;;;8.33;6.10;;;;;;;8.72;58.49;98224.41;6990732;28;20219;-84
2023/12/31 01:10:07;;;;;;;6.67;5.87;;;;;;;8.64;58.15;98224.59;7011528;28;20229;-84
2023/12/31 01:13:30;;;;;;;5.80;5.20;;;;;;;8.59;57.54;98192.97;7013760;28;20693;-87
2023/12/31 01:16:51;;;;;;;6.20;5.27;;;;;;;8.73;57.57;98191.94;7013458;28;20199;-83
2023/12/31 01:20:15;;;;;;;5.90;4.83;;;;;;;8.74;57.44;98211.56;7033344;28;20458;-83
2023/12/31 01:23:39;;;;;;;8.23;4.87;;;;;;;8.80;57.48;98218.81;7032083;28;20573;-84
2023/12/31 01:27:01;;;;;;;9.93;7.30;;;;;;;8.67;57.60;98202.69;7017728;28;20222;-83
2023/12/31 01:30:25;;;;;;;4.97;4.50;;;;;;;8.84;56.86;98193.97;7018486;28;20292;-83
2023/12/31 01:33:47;;;;;;;5.70;4.60;;;;;;;8.92;56.72;98201.84;7020893;28;20212;-83
2023/12/31 01:37:08;;;;;;;5.57;5.00;;;;;;;8.38;56.84;98197.72;7020536;28;20209;-84
2023/12/31 01:40:30;;;;;;;6.73;4.90;;;;;;;8.57;57.04;98192.38;7021693;28;20270;-82
2023/12/31 01:44:01;;;;;;;4.80;4.30;;;;;;;8.19;57.33;98169.78;7014833;28;20818;-83
2023/12/31 01:47:27;;;;;;;5.17;4.67;;;;;;;8.32;58.30;98164.44;7016873;28;20228;-82
2023/12/31 01:50:59;;;;;;;5.70;5.10;;;;;;;8.47;58.01;98170.47;7021631;28;20211;-83
2023/12/31 01:54:24;;;;;;;8.67;4.90;;;;;;;8.28;57.50;98170.44;7021362;28;20234;-84
2023/12/31 01:57:46;;;;;;;5.57;5.07;;;;;;;8.01;58.74;98158.03;7020906;28;20236;-83
2023/12/31 02:01:09;;;;;;;7.20;5.57;;;;;;;7.81;58.93;98157.13;7021385;28;20217;-83
2023/12/31 02:04:41;;;;;;;7.23;4.63;;;;;;;8.02;59.11;98149.75;7021408;28;20205;-83
2023/12/31 02:08:03;;;;;;;5.43;4.40;;;;;;;7.76;59.61;98152.38;7019606;28;20259;-83
2023/12/31 02:11:27;;;;;;;5.60;4.50;;;;;;;8.10;59.31;98136.13;7019554;28;20204;-83
2023/12/31 02:14:48;;;;;;;7.20;3.93;;;;;;;8.14;58.38;98118.56;7019921;28;20214;-84
2023/12/31 02:18:10;;;;;;;7.27;4.70;;;;;;;8.19;57.98;98104.53;7016674;28;20228;-83
2023/12/31 02:21:52;;;;;;;5.23;4.57;;;;;;;8.27;57.41;98109.72;7010546;28;20281;-84
2023/12/31 02:54:53;;;;;;;7.20;5.00;;;;;;;8.10;58.54;98074.41;6883305;28;20307;-83
2023/12/31 02:58:15;;;;;;;5.30;4.90;;;;;;;7.48;58.71;97969.31;6960407;28;20238;-84
2023/12/31 03:01:53;;;;;;;6.27;4.70;;;;;;;8.22;58.44;98055.81;6959560;28;20651;-83
2023/12/31 03:05:15;;;;;;;5.27;4.73;;;;;;;8.08;58.68;98041.53;6960325;28;20219;-83
2023/12/31 03:08:36;;;;;;;5.83;4.13;;;;;;;8.13;59.01;98038.25;6959903;28;20236;-86
2023/12/31 03:11:59;;;;;;;7.67;4.40;;;;;;;8.07;59.65;98023.78;6960690;28;20268;-83
2023/12/31 03:15:22;;;;;;;4.73;4.33;;;;;;;7.99;59.31;97972.19;6960023;28;20225;-83
2023/12/31 03:22:51;;;;;;;5.30;4.60;;;;;;;8.01;59.77;98005.03;7012169;28;20216;-83
2023/12/31 03:30:42;;;;;;;5.17;4.67;;;;;;;8.53;59.06;97978.06;7009652;28;20394;-83
2023/12/31 03:34:23;;;;;;;7.37;4.83;;;;;;;8.49;59.84;97966.91;7012346;28;20216;-83
2023/12/31 03:38:02;;;;;;;5.93;5.37;;;;;;;8.49;59.79;97976.84;7013674;28;20281;-82
2023/12/31 03:41:30;;;;;;;7.83;4.40;;;;;;;8.30;60.56;97958.94;7017502;28;20214;-83
2023/12/31 03:45:18;;;;;;;5.77;4.80;;;;;;;8.52;60.06;97953.06;7013280;28;20228;-83
2023/12/31 03:48:40;;;;;;;5.27;4.73;;;;;;;8.85;59.69;97955.59;7014413;28;20404;-84
2023/12/31 03:52:03;;;;;;;6.07;5.13;;;;;;;9.02;58.87;97962.13;7015712;28;20222;-83
2023/12/31 03:55:25;;;;;;;6.47;5.37;;;;;;;8.78;59.45;97949.44;7010486;28;20216;-83
2023/12/31 03:58:55;;;;;;;8.63;5.83;;;;;;;9.13;59.01;97938.06;6987950;28;20218;-83
2023/12/31 04:02:17;;;;;;;6.60;5.40;;;;;;;9.41;57.87;97938.50;6988751;28;20209;-82
2023/12/31 04:05:39;;;;;;;5.80;5.23;;;;;;;9.60;57.49;97930.25;6987607;28;20239;-83
2023/12/31 04:09:02;;;;;;;7.70;5.87;;;;;;;9.35;57.61;97915.16;6986085;28;20235;-82
2023/12/31 04:12:23;;;;;;;6.13;5.53;;;;;;;9.03;59.24;97917.03;6987434;28;20205;-82
2023/12/31 04:15:45;;;;;;;5.83;4.93;;;;;;;9.38;58.40;97903.94;6987550;28;20243;-82
2023/12/31 04:19:14;;;;;;;5.23;4.73;;;;;;;9.72;56.61;97900.75;6985762;28;20221;-85
2023/12/31 04:22:35;;;;;;;7.23;5.67;;;;;;;9.61;56.47;97907.69;7013403;28;20205;-82
2023/12/31 04:25:58;;;;;;;6.90;5.67;;;;;;;9.16;57.92;97873.91;7013428;28;20205;-83
2023/12/31 04:29:20;;;;;;;6.27;5.43;;;;;;;9.40;57.29;97864.22;7011935;28;20745;-82
2023/12/31 04:32:44;;;;;;;4.87;4.30;;;;;;;9.58;57.77;97875.81;7013430;28;20213;-82
2023/12/31 04:36:06;;;;;;;7.70;5.33;;;;;;;9.63;57.12;97865.22;7017669;28;20206;-82
2023/12/31 04:39:37;;;;;;;5.80;4.77;;;;;;;9.70;56.59;97875.94;7016980;28;20267;-82
2023/12/31 04:43:00;;;;;;;8.37;5.77;;;;;;;9.61;56.94;97855.72;7018349;28;20197;-82
2023/12/31 04:46:22;;;;;;;9.43;5.80;;;;;;;9.97;56.21;97874.59;7017226;28;20223;-81
2023/12/31 04:49:46;;;;;;;8.90;6.87;;;;;;;9.85;56.21;97869.13;7016490;28;20255;-83
2023/12/31 04:53:08;;;;;;;8.27;6.80;;;;;;;9.93;56.30;97859.97;7017555;28;20212;-83
2023/12/31 04:56:29;;;;;;;9.53;6.80;;;;;;;9.59;56.27;97826.38;7017331;28;20230;-83
2023/12/31 04:59:52;;;;;;;10.03;6.80;;;;;;;9.64;56.56;97831.88;7015988;28;20225;-83
2023/12/31 05:03:14;;;;;;;9.63;6.77;;;;;;;9.41;57.05;97779.78;7017251;28;20209;-82
2023/12/31 05:06:38;;;;;;;5.20;4.60;;;;;;;9.84;56.80;97828.97;7016394;28;20206;-82
2023/12/31 05:10:01;;;;;;;6.77;5.97;;;;;;;9.91;55.72;97830.56;7016948;28;20706;-83
2023/12/31 05:13:23;;;;;;;6.37;5.33;;;;;;;9.74;56.41;97820.63;7017356;28;20673;-82
2023/12/31 05:16:45;;;;;;;9.47;5.47;;;;;;;9.46;57.13;97814.91;7019722;28;20247;-83
2023/12/31 05:20:08;;;;;;;6.63;4.73;;;;;;;9.80;56.85;97822.41;7022751;28;20613;-82
2023/12/31 05:23:31;;;;;;;7.10;5.10;;;;;;;9.41;57.10;97817.44;7022415;28;20265;-83
2023/12/31 05:26:56;;;;;;;5.57;4.30;;;;;;;9.47;56.06;97776.19;7021768;28;20237;-83
2023/12/31 05:30:18;;;;;;;4.83;4.33;;;;;;;9.38;57.06;97834.00;7021652;28;20226;-82
2023/12/31 05:33:43;;;;;;;4.87;4.37;;;;;;;9.78;56.40;97822.63;7022380;28;20206;-82
2023/12/31 05:37:05;;;;;;;4.00;3.70;;;;;;;9.94;55.65;97821.22;7020692;28;20217;-83
2023/12/31 05:40:26;;;;;;;4.40;4.00;;;;;;;9.83;55.48;97798.56;7020667;28;20257;-82
2023/12/31 05:43:48;;;;;;;4.20;3.80;;;;;;;9.80;55.71;97793.63;7019603;28;20235;-82
2023/12/31 05:47:09;;;;;;;4.90;4.40;;;;;;;9.39;56.50;97784.56;7019922;28;20664;-83
2023/12/31 05:50:32;;;;;;;5.37;4.87;;;;;;;9.08;57.22;97752.38;7020261;28;20233;-84
2023/12/31 05:53:54;;;;;;;5.20;4.30;;;;;;;9.20;56.71;97778.31;7021372;28;20213;-83
2023/12/31 05:57:15;;;;;;;4.53;4.13;;;;;;;9.30;57.30;97789.41;7018363;28;20205;-83
2023/12/31 06:00:42;;;;;;;4.57;4.00;;;;;;;9.27;57.23;97778.28;7018398;28;20216;-83
2023/12/31 06:04:05;;;;;;;5.17;4.37;;;;;;;9.57;56.14;97765.75;7020476;28;20202;-82
2023/12/31 06:07:31;;;;;;;5.10;4.60;;;;;;;9.20;55.71;97686.06;7020765;28;20222;-84
2023/12/31 06:10:52;;;;;;;5.93;5.17;;;;;;;9.52;55.77;97779.03;7018575;28;20271;-82
2023/12/31 06:14:22;;;;;;;5.00;4.60;;;;;;;9.30;56.28;97781.34;7020709;28;20213;-84
2023/12/31 06:17:44;;;;;;;6.77;4.60;;;;;;;9.16;56.72;97752.91;7011416;28;20232;-83
2023/12/31 06:21:06;;;;;;;5.90;5.20;;;;;;;9.52;56.09;97779.84;6994000;28;20224;-83
2023/12/31 06:24:29;;;;;;;6.97;5.20;;;;;;;8.97;56.39;97706.59;7012676;28;20221;-82
2023/12/31 06:27:51;;;;;;;6.27;5.57;;;;;;;9.31;56.59;97758.78;7018350;28;20222;-85
2023/12/31 06:31:12;;;;;;;6.97;6.10;;;;;;;9.29;56.50;97771.63;7022048;28;20229;-85
2023/12/31 06:34:37;;;;;;;6.77;6.10;;;;;;;8.71;58.06;97765.94;7022583;28;20280;-85
2023/12/31 06:37:59;;;;;;;8.87;6.63;;;;;;;9.20;57.46;97758.66;7020157;28;20235;-85
2023/12/31 06:41:22;;;;;;;6.73;5.57;;;;;;;9.27;57.32;97754.06;7034938;28;20203;-84
2023/12/31 06:44:44;;;;;;;7.43;5.63;;;;;;;9.02;57.82;97774.75;7051146;28;20801;-83
2023/12/31 06:48:06;;;;;;;6.53;5.43;;;;;;;8.95;57.13;97716.75;7050142;28;20239;-83
2023/12/31 06:51:28;;;;;;;6.37;5.43;;;;;;;9.52;55.97;97766.38;7048565;28;20197;-85
2023/12/31 06:54:50;;;;;;;5.33;4.80;;;;;;;9.33;56.18;97774.69;7047451;28;20214;-84
2023/12/31 07:02:01;;;;;;;7.00;5.30;;;;;;;8.70;58.67;97788.47;7007729;28;20211;-84
2023/12/31 07:05:22;;;;;;;8.83;5.30;;;;;;;8.80;58.17;97764.63;7011369;28;20216;-87
2023/12/31 07:08:44;;;;;;;5.37;4.77;;;;;;;9.51;56.97;97791.66;6994284;28;20297;-87
2023/12/31 07:12:06;;;;;;;8.87;5.73;;;;;;;8.96;57.73;97789.06;7005988;28;20303;-86
2023/12/31 07:15:29;;;;;;;6.77;5.77;;;;;;;8.82;57.90;97803.66;7004605;28;20200;-87
2023/12/31 07:18:50;;;;;;;7.20;5.70;;;;;;;9.22;57.32;97792.34;7004976;28;20261;-87
2023/12/31 07:22:12;;;;;;;6.93;4.90;;;;;;;8.74;58.48;97817.38;7004855;28;20282;-86
2023/12/31 07:25:33;;;;;;;5.93;5.33;;;;;;;8.78;59.35;97825.84;7000284;28;20209;-86
2023/12/31 07:28:55;;;;;;;6.27;4.50;;;;;;;8.95;58.26;97798.19;6999914;28;20368;-86
2023/12/31 07:32:18;;;;;;;4.30;4.00;;;;;;;8.58;58.34;97793.72;6999252;28;20267;-90
2023/12/31 07:35:41;;;;;;;4.80;3.83;;;;;;;8.87;57.78;97811.06;7000507;28;20265;-89
2023/12/31 07:39:03;;;;;;;5.03;4.63;;;;;;;9.46;56.53;97826.47;6999342;28;20225;-89
2023/12/31 07:42:25;;;;;;;5.87;5.27;;;;;;;9.02;56.79;97753.25;6999883;28;20235;-90
2023/12/31 07:45:46;;;;;;;7.03;6.37;;;;;;;9.35;57.57;97853.28;6993694;28;20248;-90
2023/12/31 07:49:09;;;;;;;7.47;6.10;;;;;;;8.83;58.51;97818.75;6998813;28;20302;-89
2023/12/31 07:52:31;;;;;;;7.07;5.97;;;;;;;9.07;58.40;97851.03;6999826;28;20303;-86
2023/12/31 07:55:52;;;;;;;4.50;4.10;;;;;;;8.24;60.49;97839.78;6975178;28;20201;-86
2023/12/31 07:59:14;;;;;;;3.73;3.43;;;;;;;9.37;58.13;97853.88;6978469;28;20282;-86
2023/12/31 08:02:36;;;;;;;4.37;3.70;;;;;;;9.84;56.20;97839.75;7007714;28;20259;-85
2023/12/31 08:05:59;;;;;;;5.20;4.73;;;;;;;10.34;54.62;97847.44;7006726;28;20202;-86
2023/12/31 08:09:29;;;;;;;8.23;5.30;;;;;;;9.79;55.49;97826.13;7012923;28;20233;-87
2023/12/31 08:12:57;;;;;;;5.30;4.80;;;;;;;9.72;55.72;97828.06;7023939;28;20578;-84
2023/12/31 08:33:30;;;;;;;3.80;2.90;;;;;;;10.95;50.94;97790.59;6831877;29;20197;-86
2023/12/31 08:41:14;;;;;;;3.07;2.80;;;;;;;11.71;49.09;97800.28;6801672;29;20249;-86
2023/12/31 08:44:35;;;;;;;2.80;2.60;;;;;;;12.28;47.96;97785.81;6786667;29;20214;-82
2023/12/31 08:47:57;;;;;;;3.00;2.80;;;;;;;12.45;46.95;97778.59;6786384;29;20326;-82
2023/12/31 08:51:21;;;;;;;3.83;3.27;;;;;;;12.59;46.71;97765.59;6791510;29;20696;-86
2023/12/31 08:54:43;;;;;;;3.50;3.20;;;;;;;12.78;46.36;97761.59;6789755;29;20203;-80
2023/12/31 08:58:05;;;;;;;3.40;2.77;;;;;;;12.69;46.16;97753.06;6787055;29;20728;-82
2023/12/31 09:01:26;;;;;;;3.00;2.70;;;;;;;12.86;45.80;97745.78;6828350;28;20663;-80
2023/12/31 09:04:48;;;;;;;3.20;2.90;;;;;;;13.05;46.18;97752.63;6895298;28;20235;-81
2023/12/31 09:08:11;;;;;;;2.80;2.60;;;;;;;12.95;45.40;97757.03;6962616;28;20606;-81
2023/12/31 09:11:32;;;;;;;3.20;2.90;;;;;;;13.01;45.37;97751.50;6970115;28;20287;-83
2023/12/31 09:14:54;;;;;;;2.90;2.60;;;;;;;12.93;45.23;97762.69;6969871;28;20277;-82
2023/12/31 09:18:16;;;;;;;3.00;2.80;;;;;;;13.19;44.39;97748.53;6990146;28;20718;-82
2023/12/31 09:21:41;;;;;;;2.73;2.40;;;;;;;13.31;43.79;97732.19;6999057;28;20238;-81
2023/12/31 09:25:05;;;;;;;3.33;2.70;;;;;;;13.13;43.03;97729.75;6998679;28;20201;-81
2023/12/31 09:28:27;;;;;;;2.50;2.30;;;;;;;13.15;42.50;97725.75;6998979;28;20264;-82
2023/12/31 09:31:49;;;;;;;2.73;2.20;;;;;;;13.42;42.36;97731.28;7003491;28;20750;-83
2023/12/31 09:35:11;;;;;;;2.47;2.30;;;;;;;13.55;41.83;97734.47;7005781;28;20199;-81
2023/12/31 09:38:32;;;;;;;3.17;2.87;;;;;;;13.51;41.42;97735.22;7009679;28;20249;-82
2023/12/31 09:41:58;;;;;;;7.83;5.03;;;;;;;13.45;41.82;97742.44;7008223;28;20912;-80
2023/12/31 09:45:21;;;;;;;8.63;5.33;;;;;;;13.53;41.98;97727.66;7008149;28;20238;-81
2023/12/31 09:48:42;;;;;;;2.70;2.50;;;;;;;13.67;41.56;97716.22;7008546;28;20235;-81
2023/12/31 09:52:07;;;;;;;2.90;2.60;;;;;;;13.78;41.22;97707.16;7009272;28;20288;-82
2023/12/31 09:55:29;;;;;;;2.90;2.53;;;;;;;13.85;40.67;97685.25;7009533;28;20202;-81
2023/12/31 09:58:52;;;;;;;3.07;2.80;;;;;;;14.16;40.39;97695.41;7009807;28;20226;-81
2023/12/31 10:02:18;;;;;;;3.60;3.30;;;;;;;14.15;41.04;97688.34;7006268;28;20250;-80
2023/12/31 10:05:50;;;;;;;3.80;2.63;;;;;;;14.07;41.07;97686.06;7003469;28;20296;-79
2023/12/31 10:09:12;;;;;;;2.80;2.60;;;;;;;14.65;40.01;97681.56;7004308;28;20717;-82
2023/12/31 10:12:34;;;;;;;5.67;3.60;;;;;;;14.88;40.17;97662.22;7004406;28;20209;-82
2023/12/31 10:15:57;;;;;;;2.70;2.50;;;;;;;15.17;39.30;97643.69;7003116;28;20209;-81
2023/12/31 10:19:19;;;;;;;2.53;2.40;;;;;;;15.24;38.63;97626.09;7004579;28;20309;-78
2023/12/31 10:22:41;;;;;;;3.03;2.73;;;;;;;15.09;39.21;97639.56;6983828;28;20202;-79
2023/12/31 10:26:02;;;;;;;3.60;3.00;;;;;;;15.09;39.88;97608.88;6971204;28;20728;-78
2023/12/31 10:29:24;;;;;;;3.00;2.37;;;;;;;14.91;39.98;97603.88;6990994;28;20297;-79
2023/12/31 10:32:47;;;;;;;2.90;2.70;;;;;;;15.04;39.67;97585.22;6997576;28;20201;-79
2023/12/31 10:36:10;;;;;;;7.20;3.07;;;;;;;15.06;39.20;97555.94;6969931;28;20255;-79
2023/12/31 10:39:33;;;;;;;2.97;2.70;;;;;;;15.27;38.94;97556.88;6971671;28;20778;-79
2023/12/31 10:42:56;;;;;;;2.87;2.67;;;;;;;15.03;38.92;97510.31;6997988;28;20724;-79
2023/12/31 10:46:18;;;;;;;3.00;2.70;;;;;;;15.55;38.61;97549.13;6998046;28;20207;-78
2023/12/31 10:49:46;;;;;;;2.80;2.60;;;;;;;15.49;38.66;97558.34;6996702;28;20229;-79
2023/12/31 10:53:10;;;;;;;3.27;2.80;;;;;;;15.81;38.11;97567.13;6996842;28;20225;-79
2023/12/31 10:56:32;;;;;;;2.87;2.67;;;;;;;15.94;38.06;97557.66;6997972;28;20297;-81
2023/12/31 10:59:54;;;;;;;3.57;3.00;;;;;;;15.70;38.47;97542.91;6975408;28;20315;-82
2023/12/31 11:03:16;;;;;;;2.60;2.40;;;;;;;15.71;38.58;97541.81;6969588;28;20214;-82
2023/12/31 11:06:40;;;;;;;3.67;2.90;;;;;;;16.01;38.53;97542.72;6969528;28;20296;-82
2023/12/31 11:10:02;;;;;;;2.67;2.47;;;;;;;16.11;38.40;97528.31;6969112;28;20219;-83
2023/12/31 11:13:24;;;;;;;2.73;2.50;;;;;;;16.25;37.60;97527.50;6994587;28;20230;-83
2023/12/31 11:16:54;;;;;;;2.27;2.10;;;;;;;16.11;38.20;97499.19;6997482;28;20288;-83
2023/12/31 11:20:29;;;;;;;3.63;2.57;;;;;;;16.40;38.19;97516.63;6978756;28;20219;-79
2023/12/31 11:24:04;;;;;;;2.77;2.57;;;;;;;16.40;37.77;97508.47;6989728;28;20666;-81
2023/12/31 11:27:28;;;;;;;3.83;3.00;;;;;;;16.28;38.30;97450.00;6995924;28;20242;-80
2023/12/31 11:30:51;;;;;;;3.57;2.90;;;;;;;16.16;38.96;97487.53;6997496;28;20318;-79
2023/12/31 11:34:13;;;;;;;3.30;2.87;;;;;;;16.09;38.42;97486.97;6997904;28;20262;-80
2023/12/31 11:37:36;;;;;;;3.10;2.87;;;;;;;16.27;38.23;97503.56;6996742;28;20357;-79
2023/12/31 11:40:59;;;;;;;3.10;2.90;;;;;;;16.33;38.38;97504.38;6994843;28;20212;-80
2023/12/31 11:44:46;;;;;;;2.80;2.60;;;;;;;16.39;38.60;97497.88;6997306;28;20677;-80
2023/12/31 11:48:17;;;;;;;2.87;2.67;;;;;;;16.28;38.13;97517.97;6983340;28;20369;-79
2023/12/31 11:51:51;;;;;;;2.93;2.73;;;;;;;16.48;38.11;97532.41;6997694;28;20235;-81
2023/12/31 11:55:15;;;;;;;5.00;2.93;;;;;;;16.67;37.70;97557.16;6997257;28;20569;-80
2023/12/31 11:58:38;;;;;;;2.90;2.60;;;;;;;16.54;38.56;97580.31;6987721;28;20573;-80
2023/12/31 12:02:00;;;;;;;2.70;2.50;;;;;;;15.68;41.63;97656.50;6988194;28;20291;-80
2023/12/31 12:05:22;;;;;;;3.60;3.30;;;;;;;14.85;44.58;97697.19;6996982;28;20205;-79
2023/12/31 12:08:43;;;;;;;4.10;3.80;;;;;;;14.16;47.56;97714.38;6996537;28;20711;-80
2023/12/31 12:12:07;;;;;;;4.30;3.60;;;;;;;13.91;49.77;97733.03;6997624;28;20316;-80
2023/12/31 12:15:35;;;;;;;2.50;2.30;;;;;;;13.76;51.40;97725.53;6999261;28;20578;-79
2023/12/31 12:19:00;;;;;;;2.37;2.17;;;;;;;13.81;51.25;97744.56;6996290;28;20709;-79
2023/12/31 12:22:21;;;;;;;2.30;2.20;;;;;;;13.28;52.95;97730.00;6994584;28;20221;-80
2023/12/31 12:25:43;;;;;;;2.27;2.17;;;;;;;13.12;52.92;97750.59;7003189;28;20204;-78
2023/12/31 12:29:04;;;;;;;11.80;9.00;;;;;;;12.81;53.56;97751.13;7006432;28;20310;-79
2023/12/31 12:32:27;;;;;;;3.67;3.37;;;;;;;12.87;53.70;97770.97;7007549;28;20342;-79
2023/12/31 12:35:49;;;;;;;2.23;2.13;;;;;;;12.80;53.91;97770.31;7006758;28;20206;-79
2023/12/31 12:39:14;;;;;;;2.03;1.93;;;;;;;12.76;53.76;97764.53;7007178;28;20269;-80
2023/12/31 12:42:36;;;;;;;2.70;2.50;;;;;;;13.32;53.65;97796.94;6981161;28;20206;-79
2023/12/31 12:46:10;;;;;;;2.43;2.27;;;;;;;13.29;53.25;97802.03;7000565;28;20237;-79
2023/12/31 12:49:33;;;;;;;4.77;3.97;;;;;;;13.18;54.23;97797.50;6987862;28;20225;-79
2023/12/31 12:52:55;;;;;;;6.10;4.67;;;;;;;13.08;54.19;97790.03;7007857;28;20262;-80
2023/12/31 12:56:17;;;;;;;4.57;3.47;;;;;;;13.04;54.13;97801.59;7010427;28;20202;-79
2023/12/31 12:59:38;;;;;;;2.40;2.20;;;;;;;13.09;54.06;97783.56;7011329;28;20278;-79
2023/12/31 13:03:00;;;;;;;5.53;4.00;;;;;;;13.23;53.78;97784.06;7006958;28;20197;-79
2023/12/31 13:06:23;;;;;;;2.30;2.03;;;;;;;12.76;55.74;97798.91;7009991;28;20273;-79
2023/12/31 13:09:44;;;;;;;2.10;2.00;;;;;;;13.05;54.58;97787.00;7005727;28;20695;-79
2023/12/31 13:13:06;;;;;;;8.53;6.53;;;;;;;13.46;54.19;97800.94;6998090;28;20203;-80
2023/12/31 13:16:27;;;;;;;2.07;1.97;;;;;;;13.73;52.22;97793.75;7002894;28;20412;-82
2023/12/31 13:19:51;;;;;;;1.70;1.60;;;;;;;13.80;52.57;97805.22;7022305;28;20218;-82
2023/12/31 13:23:14;;;;;;;1.73;1.67;;;;;;;13.96;52.71;97798.97;7024347;28;20263;-82
2023/12/31 13:26:35;;;;;;;1.80;1.70;;;;;;;13.72;52.96;97808.38;7020698;28;20210;-82
2023/12/31 13:29:57;;;;;;;4.13;2.47;;;;;;;13.67;53.98;97804.75;7005765;28;20250;-82
2023/12/31 13:33:20;;;;;;;2.30;2.10;;;;;;;13.82;54.39;97802.28;6974216;28;20226;-80
2023/12/31 13:36:42;;;;;;;2.30;2.20;;;;;;;14.00;54.40;97804.69;6972996;28;20237;-81
2023/12/31 13:40:06;;;;;;;2.37;2.17;;;;;;;13.92;54.31;97794.31;7000893;28;20219;-81
2023/12/31 13:43:27;;;;;;;2.13;2.03;;;;;;;13.69;54.09;97802.66;6999800;28;20209;-83
2023/12/31 13:46:49;;;;;;;2.20;2.00;;;;;;;13.76;54.65;97801.38;6986441;28;20716;-83
2023/12/31 13:50:10;;;;;;;2.20;2.10;;;;;;;13.58;54.92;97795.44;6996027;28;20233;-81
2023/12/31 13:53:32;;;;;;;3.57;2.10;;;;;;;13.41;55.38;97790.03;6992003;28;20213;-82
2023/12/31 13:56:55;;;;;;;2.63;2.30;;;;;;;13.19;55.39;97783.72;6996446;28;20201;-81
2023/12/31 14:00:17;;;;;;;2.80;2.60;;;;;;;13.21;55.54;97776.16;7002511;28;20363;-86
2023/12/31 14:03:38;;;;;;;4.20;3.03;;;;;;;13.29;56.28;97777.66;7026758;28;20686;-84
2023/12/31 14:07:00;;;;;;;3.20;2.73;;;;;;;13.12;56.46;97766.00;7001910;28;20805;-83
2023/12/31 14:10:22;;;;;;;3.30;2.53;;;;;;;13.39;55.98;97767.78;6999003;28;20239;-85
2023/12/31 14:13:45;;;;;;;3.13;2.83;;;;;;;13.43;55.86;97779.78;6999076;28;20206;-85
2023/12/31 14:17:06;;;;;;;2.40;2.20;;;;;;;12.90;57.19;97770.47;6998127;28;21035;-86
2023/12/31 14:20:28;;;;;;;3.00;2.73;;;;;;;13.13;57.70;97781.19;6996842;28;20333;-86
2023/12/31 14:23:49;;;;;;;2.80;2.50;;;;;;;13.31;56.78;97762.81;6972376;28;20344;-83
2023/12/31 14:27:11;;;;;;;3.07;2.87;;;;;;;12.62;58.50;97714.56;6978300;28;20759;-86
2023/12/31 14:30:35;;;;;;;3.03;2.70;;;;;;;12.51;59.27;97747.88;6970458;28;20234;-86
2023/12/31 14:33:57;;;;;;;4.50;3.47;;;;;;;12.59;59.28;97742.09;6972198;28;20311;-83
2023/12/31 14:37:18;;;;;;;3.40;3.10;;;;;;;12.52;59.64;97735.19;6972323;28;20230;-85
2023/12/31 14:40:42;;;;;;;3.57;3.13;;;;;;;12.51;59.26;97730.84;6979450;28;20385;-83
2023/12/31 14:44:04;;;;;;;5.40;3.13;;;;;;;12.50;58.60;97753.53;6997858;28;20208;-86
2023/12/31 14:47:27;;;;;;;2.33;2.23;;;;;;;12.50;57.95;97767.03;6997770;28;20201;-87
2023/12/31 14:50:49;;;;;;;2.57;2.20;;;;;;;12.41;57.21;97744.19;7001604;28;20246;-82
2023/12/31 14:54:11;;;;;;;2.40;2.20;;;;;;;12.49;57.13;97768.09;7001942;28;20210;-83
2023/12/31 14:57:34;;;;;;;2.40;2.20;;;;;;;13.04;56.98;97763.72;6998050;28;20259;-81
2023/12/31 15:00:55;;;;;;;2.03;1.93;;;;;;;12.71;56.13;97772.59;6990466;28;20235;-82
2023/12/31 15:04:18;;;;;;;1.90;1.80;;;;;;;12.88;55.60;97765.31;6997179;28;20343;-84
2023/12/31 15:07:40;;;;;;;1.97;1.87;;;;;;;12.91;53.74;97769.41;6981021;28;20249;-84
2023/12/31 15:11:02;;;;;;;1.80;1.70;;;;;;;12.86;53.65;97761.22;6984235;28;20316;-83
2023/12/31 15:14:23;;;;;;;3.87;3.40;;;;;;;12.79;54.13;97750.56;6999543;28;20198;-83
2023/12/31 15:17:46;;;;;;;2.00;1.90;;;;;;;13.15;52.94;97743.88;6998036;28;20233;-83
2023/12/31 15:21:09;;;;;;;1.93;1.83;;;;;;;12.90;52.54;97738.84;6997285;28;20236;-83
2023/12/31 15:24:30;;;;;;;3.10;1.63;;;;;;;12.20;54.44;97745.69;6996915;28;20289;-85
2023/12/31 15:27:52;;;;;;;1.90;1.80;;;;;;;12.24;55.37;97754.94;6996882;28;20232;-83
2023/12/31 15:31:13;;;;;;;1.80;1.70;;;;;;;12.57;54.37;97771.25;6996930;28;20225;-81
2023/12/31 15:34:35;;;;;;;2.40;1.73;;;;;;;12.42;54.05;97773.69;6996885;28;20430;-81
2023/12/31 15:38:01;;;;;;;1.93;1.83;;;;;;;12.66;53.86;97786.03;6996690;28;20307;-81
2023/12/31 15:41:25;;;;;;;2.00;1.83;;;;;;;12.12;54.85;97792.00;7007895;28;20201;-83
2023/12/31 15:44:47;;;;;;;1.60;1.60;;;;;;;12.03;54.85;97784.50;6996993;28;20197;-81
2023/12/31 15:48:09;;;;;;;2.00;1.90;;;;;;;11.95;55.46;97771.34;6993584;28;20237;-83
2023/12/31 15:51:31;;;;;;;1.73;1.70;;;;;;;12.14;54.22;97762.00;6996830;28;20722;-81
2023/12/31 15:54:54;;;;;;;2.10;2.00;;;;;;;12.61;53.32;97764.28;6994775;28;20210;-81
2023/12/31 15:58:16;;;;;;;2.03;1.87;;;;;;;12.98;52.05;97749.28;6992031;28;20229;-81
2023/12/31 16:01:37;;;;;;;2.37;1.70;;;;;;;12.72;51.40;97746.34;6991605;28;20205;-82
2023/12/31 16:04:59;;;;;;;1.90;1.80;;;;;;;13.17;50.74;97766.09;6996609;28;20296;-84
2023/12/31 16:08:20;;;;;;;1.73;1.70;;;;;;;13.28;49.97;97778.72;6996010;28;20359;-82
2023/12/31 16:11:43;;;;;;;1.80;1.70;;;;;;;12.75;50.91;97757.50;6997104;28;20255;-80
2023/12/31 16:15:05;;;;;;;1.90;1.80;;;;;;;12.36;51.80;97749.47;6996675;28;20266;-82
2023/12/31 16:18:27;;;;;;;2.00;1.90;;;;;;;12.93;50.87;97748.34;6996155;28;20291;-81
2023/12/31 16:21:48;;;;;;;1.90;1.80;;;;;;;13.19;50.08;97761.25;6996842;28;20292;-81
2023/12/31 16:25:10;;;;;;;2.43;2.07;;;;;;;13.18;49.93;97782.09;6996787;28;20343;-84
2023/12/31 16:28:33;;;;;;;2.63;1.90;;;;;;;12.75;51.14;97775.63;6996824;28;20367;-82
2023/12/31 16:31:54;;;;;;;1.90;1.80;;;;;;;12.52;51.86;97797.38;6995114;28;20371;-82
2023/12/31 16:35:16;;;;;;;3.87;2.40;;;;;;;12.66;50.71;97815.75;6973347;28;20352;-84
2023/12/31 16:38:37;;;;;;;2.40;2.20;;;;;;;12.56;51.85;97833.69;6972067;28;20266;-83
2023/12/31 16:41:59;;;;;;;3.00;2.80;;;;;;;12.39;51.65;97825.50;6972705;28;20343;-82
2023/12/31 16:45:22;;;;;;;4.37;3.47;;;;;;;12.40;51.96;97831.75;6972349;28;20344;-83
2023/12/31 16:48:43;;;;;;;5.13;4.33;;;;;;;12.59;51.31;97828.63;6974524;28;20317;-82
2023/12/31 16:52:05;;;;;;;2.13;2.03;;;;;;;12.35;52.12;97845.97;6973790;28;20698;-82
2023/12/31 16:55:27;;;;;;;2.30;2.10;;;;;;;12.48;50.91;97843.00;6973711;28;20241;-86
2023/12/31 16:58:49;;;;;;;2.50;2.30;;;;;;;12.22;51.67;97859.75;6970503;28;20252;-83
2023/12/31 17:02:12;;;;;;;2.60;2.40;;;;;;;12.50;51.03;97845.44;7000771;28;20298;-81
2023/12/31 17:05:34;;;;;;;3.30;3.00;;;;;;;12.48;51.01;97825.94;6997258;28;20664;-81